KGTR

Golden Triangle Regional Airport

Columbus/W Point/Starkville, Mississippi, USA
METAR KGTR 150256Z AUTO 00000KT 10SM CLR 26/23 A3002 RMK AO2 SLP167 6//// T02610233 53008 PNO $
Observed Flight Rules
Aug-15 @ 02:56 UTC (40 minutes ago) Visual Flight Rules
Visibility Clouds
10 miles
  • Clear skies
Temperatures Readings
Current 26°C / 79°F
Dewpoint 23°C / 73°F
Humidity 84%
Altimeter 30.02" Hg
Pressure 1016.7 hPa
Elevation 80
METAR KGTR 150256Z AUTO 00000KT 10SM CLR 26/23 A3002 RMK AO2 SLP167 6//// T02610233 53008 PNO $
Observed Flight Rules
Aug-15 @ 02:56 UTC
(40 minutes ago)
VFR
Clouds
  • Clear skies
Temperature Dewpoint
26°C / 79°F 23°C / 73°F
Humidity Altimeter Pressure
84% 30.02" Hg 1016.7 hPa